createdAt,value
2018-04-26T00:01:50.696Z,95.89
2018-04-26T00:04:16.548Z,95.92
2018-04-26T00:06:42.384Z,95.92
2018-04-26T00:09:08.264Z,95.97
2018-04-26T00:11:34.109Z,95.85
2018-04-26T00:13:59.983Z,95.78
2018-04-26T00:16:25.867Z,95.79
2018-04-26T00:18:51.718Z,96.14
2018-04-26T00:21:17.565Z,96.01
2018-04-26T00:23:43.400Z,96.29
2018-04-26T00:26:09.241Z,96.17
2018-04-26T00:28:35.076Z,96.13
2018-04-26T00:31:00.922Z,96.14
2018-04-26T00:33:26.779Z,95.94
2018-04-26T00:35:52.617Z,96.15
2018-04-26T00:38:18.455Z,96.25
2018-04-26T00:40:44.302Z,96.25
2018-04-26T00:43:10.184Z,96.58
2018-04-26T00:45:36.030Z,96.68
2018-04-26T00:48:01.969Z,96.64
2018-04-26T00:50:27.786Z,96.85
2018-04-26T00:52:53.631Z,96.61
2018-04-26T00:55:19.503Z,96.72
2018-04-26T00:57:45.349Z,96.95
2018-04-26T01:00:11.216Z,97.13
2018-04-26T01:02:37.046Z,97.19
2018-04-26T01:05:02.923Z,97.17
2018-04-26T01:07:28.786Z,97.20
2018-04-26T01:09:54.636Z,97.14
2018-04-26T01:12:20.486Z,96.56
2018-04-26T01:14:46.317Z,96.42
2018-04-26T01:17:12.170Z,95.82
2018-04-26T01:19:38.010Z,95.70
2018-04-26T01:22:03.858Z,95.21
2018-04-26T01:24:29.722Z,94.56
2018-04-26T01:26:55.585Z,94.00
2018-04-26T01:29:21.465Z,93.48
2018-04-26T01:31:47.311Z,93.13
2018-04-26T01:34:13.150Z,93.49
2018-04-26T01:36:51.342Z,92.55
2018-04-26T01:39:17.198Z,92.15
2018-04-26T01:41:43.079Z,91.63
2018-04-26T01:44:08.953Z,91.51
2018-04-26T01:46:34.803Z,91.00
2018-04-26T01:49:00.657Z,90.86
2018-04-26T01:51:26.503Z,90.52
2018-04-26T01:53:52.380Z,90.20
2018-04-26T01:56:18.222Z,90.41
2018-04-26T01:58:44.063Z,90.40
2018-04-26T02:01:09.931Z,90.08
2018-04-26T02:03:35.793Z,89.98
2018-04-26T02:06:01.618Z,89.91
2018-04-26T02:08:27.480Z,89.45
2018-04-26T02:10:53.357Z,89.68
2018-04-26T02:13:19.181Z,89.68
2018-04-26T02:15:45.062Z,89.43
2018-04-26T02:18:10.909Z,89.24
2018-04-26T02:20:36.764Z,89.10
2018-04-26T02:23:02.640Z,89.06
2018-04-26T02:25:29.627Z,89.16
2018-04-26T02:27:55.496Z,89.31
2018-04-26T02:30:21.379Z,89.07
2018-04-26T02:32:47.223Z,88.98
2018-04-26T02:35:13.036Z,88.37
2018-04-26T02:37:38.878Z,88.04
2018-04-26T02:40:04.739Z,88.18
2018-04-26T02:42:30.587Z,87.98
2018-04-26T02:44:56.447Z,87.97
2018-04-26T02:47:22.314Z,88.48
2018-04-26T02:49:48.160Z,87.87
2018-04-26T02:52:13.993Z,87.88
2018-04-26T02:54:39.834Z,87.65
2018-04-26T02:57:05.685Z,87.75
2018-04-26T02:59:31.626Z,87.57
2018-04-26T03:01:57.426Z,87.37
2018-04-26T03:04:23.254Z,87.32
2018-04-26T03:06:49.080Z,87.25
2018-04-26T03:09:14.927Z,88.06
2018-04-26T03:11:40.803Z,87.33
2018-04-26T03:14:06.670Z,87.57
2018-04-26T03:16:32.527Z,88.22
2018-04-26T03:18:58.381Z,87.80
2018-04-26T03:21:24.229Z,87.68
2018-04-26T03:23:50.084Z,87.49
2018-04-26T03:26:15.927Z,88.03
2018-04-26T03:28:41.792Z,87.85
2018-04-26T03:31:07.744Z,87.88
2018-04-26T03:33:33.505Z,87.49
2018-04-26T03:35:59.358Z,87.10
2018-04-26T03:38:25.202Z,86.86
2018-04-26T03:40:51.061Z,86.75
2018-04-26T03:43:17.719Z,86.91
2018-04-26T03:45:43.584Z,87.82
2018-04-26T03:48:09.422Z,87.03
2018-04-26T03:50:35.280Z,87.22
2018-04-26T03:53:01.127Z,86.99
2018-04-26T03:55:26.973Z,87.35
2018-04-26T03:57:52.798Z,87.63
2018-04-26T04:00:30.919Z,87.53
2018-04-26T04:03:09.017Z,87.95
2018-04-26T04:05:40.902Z,88.06
2018-04-26T04:08:06.759Z,88.27
2018-04-26T04:10:32.602Z,88.30
2018-04-26T04:12:58.460Z,88.68
2018-04-26T04:15:24.289Z,88.93
2018-04-26T04:17:50.150Z,88.75
2018-04-26T04:20:15.977Z,89.10
2018-04-26T04:22:41.859Z,89.11
2018-04-26T04:25:07.715Z,89.28
2018-04-26T04:27:33.577Z,89.32
2018-04-26T04:30:00.257Z,89.21
2018-04-26T04:32:26.093Z,89.44
2018-04-26T04:34:51.926Z,89.18
2018-04-26T04:37:17.775Z,89.18
2018-04-26T04:39:43.630Z,89.15
2018-04-26T04:42:09.509Z,89.32
2018-04-26T04:44:35.378Z,89.17
2018-04-26T04:47:01.239Z,89.15
2018-04-26T04:49:27.074Z,89.17
2018-04-26T04:51:52.922Z,88.67
2018-04-26T04:54:18.759Z,88.87
2018-04-26T04:56:44.619Z,88.37
2018-04-26T04:59:10.492Z,88.49
2018-04-26T05:01:36.354Z,88.11
2018-04-26T05:04:02.205Z,87.91
2018-04-26T05:06:28.071Z,88.00
2018-04-26T05:08:53.904Z,87.87
2018-04-26T05:11:19.776Z,87.73
2018-04-26T05:13:45.639Z,87.43
2018-04-26T05:16:11.466Z,87.38
2018-04-26T05:18:37.335Z,87.65
2018-04-26T05:21:03.183Z,88.31
2018-04-26T05:23:29.030Z,88.64
2018-04-26T05:25:54.872Z,89.81
2018-04-26T05:28:20.768Z,89.67
2018-04-26T05:30:46.614Z,90.50
2018-04-26T05:33:12.498Z,91.38
2018-04-26T05:35:38.352Z,91.25
2018-04-26T05:38:04.207Z,92.22
2018-04-26T05:40:30.159Z,93.11
2018-04-26T05:42:55.959Z,93.94
2018-04-26T05:45:21.827Z,94.30
2018-04-26T05:47:47.677Z,94.92
2018-04-26T05:50:13.577Z,95.74
2018-04-26T05:52:39.405Z,95.93
2018-04-26T05:55:05.260Z,95.80
2018-04-26T05:57:31.113Z,95.77
2018-04-26T05:59:56.986Z,96.21
2018-04-26T06:02:22.833Z,96.46
2018-04-26T06:04:48.682Z,96.65
2018-04-26T06:07:14.534Z,96.79
2018-04-26T06:09:40.388Z,97.08
2018-04-26T06:12:06.256Z,97.25
2018-04-26T06:14:32.119Z,97.47
2018-04-26T06:16:58.030Z,97.66
2018-04-26T06:19:23.879Z,97.76
2018-04-26T06:21:49.716Z,98.03
2018-04-26T06:24:15.574Z,98.25
2018-04-26T06:26:41.432Z,98.42
2018-04-26T06:29:07.298Z,98.37
2018-04-26T06:31:33.134Z,98.08
2018-04-26T06:33:59.004Z,97.54
2018-04-26T06:36:24.855Z,97.36
2018-04-26T06:38:50.717Z,97.24
2018-04-26T06:41:16.559Z,97.08
2018-04-26T06:43:42.410Z,97.08
2018-04-26T06:46:08.264Z,97.11
2018-04-26T06:48:34.144Z,96.93
2018-04-26T06:50:59.980Z,96.93
2018-04-26T06:53:25.886Z,97.16
2018-04-26T06:55:51.703Z,96.95
2018-04-26T06:58:17.540Z,97.01
2018-04-26T07:00:43.404Z,96.81
2018-04-26T07:03:09.269Z,96.97
2018-04-26T07:05:36.695Z,96.97
2018-04-26T07:08:02.542Z,97.26
2018-04-26T07:10:28.397Z,96.88
2018-04-26T07:12:54.237Z,96.76
2018-04-26T07:15:20.096Z,96.70
2018-04-26T07:17:45.956Z,96.74
2018-04-26T07:20:11.799Z,96.39
2018-04-26T07:22:37.669Z,96.03
2018-04-26T07:25:03.507Z,96.00
2018-04-26T07:27:29.367Z,96.12
2018-04-26T07:29:55.252Z,95.90
2018-04-26T07:32:21.087Z,95.93
2018-04-26T07:34:46.964Z,95.60
2018-04-26T07:37:12.799Z,95.25
2018-04-26T07:39:38.695Z,94.73
2018-04-26T07:42:04.559Z,94.65
2018-04-26T07:44:30.411Z,94.62
2018-04-26T07:46:56.321Z,94.16
2018-04-26T07:49:22.143Z,94.02
2018-04-26T07:51:47.992Z,94.26
2018-04-26T07:54:13.863Z,94.13
2018-04-26T07:56:39.719Z,94.07
2018-04-26T07:59:05.559Z,93.63
2018-04-26T08:01:31.440Z,93.50
2018-04-26T08:03:57.273Z,93.37
2018-04-26T08:06:23.121Z,93.21
2018-04-26T08:08:48.968Z,93.00
2018-04-26T08:11:14.818Z,92.67
2018-04-26T08:13:40.730Z,92.52
2018-04-26T08:16:06.583Z,92.23
2018-04-26T08:18:32.429Z,92.53
2018-04-26T08:20:58.356Z,92.04
2018-04-26T08:23:24.196Z,91.78
2018-04-26T08:25:50.037Z,91.61
2018-04-26T08:28:15.882Z,91.50
2018-04-26T08:30:41.732Z,91.53
2018-04-26T08:33:08.425Z,90.92
2018-04-26T08:35:34.283Z,90.99
2018-04-26T08:38:00.153Z,90.83
2018-04-26T08:40:26.022Z,90.27
2018-04-26T08:42:51.878Z,90.30
2018-04-26T08:45:17.731Z,90.63
2018-04-26T08:47:43.598Z,90.80
2018-04-26T08:50:09.441Z,91.42
2018-04-26T08:52:35.287Z,91.45
2018-04-26T08:55:01.116Z,90.96
2018-04-26T08:57:26.960Z,90.61
2018-04-26T08:59:52.833Z,90.29
2018-04-26T09:02:18.695Z,89.75
2018-04-26T09:04:44.570Z,88.93
2018-04-26T09:07:10.419Z,87.37
2018-04-26T09:09:36.268Z,86.96
2018-04-26T09:12:02.113Z,86.36
2018-04-26T09:14:27.946Z,86.81
2018-04-26T09:16:53.790Z,87.00
2018-04-26T09:19:19.643Z,87.96
2018-04-26T09:21:45.508Z,89.46
2018-04-26T09:24:11.351Z,91.51
2018-04-26T09:26:37.194Z,92.90
2018-04-26T09:29:03.036Z,93.64
2018-04-26T09:31:28.910Z,94.05
2018-04-26T09:33:54.734Z,93.96
2018-04-26T09:36:20.624Z,93.79
2018-04-26T09:38:46.554Z,94.16
2018-04-26T09:41:12.367Z,93.52
2018-04-26T09:43:38.237Z,94.30
2018-04-26T09:46:04.078Z,94.35
2018-04-26T09:48:29.930Z,94.67
2018-04-26T09:50:55.769Z,94.68
2018-04-26T09:53:21.606Z,95.03
2018-04-26T09:55:47.449Z,95.74
2018-04-26T09:58:13.300Z,96.04
2018-04-26T10:00:42.168Z,96.41
2018-04-26T10:03:08.877Z,95.56
2018-04-26T10:05:40.724Z,95.86
2018-04-26T10:08:06.553Z,95.58
2018-04-26T10:10:32.411Z,94.53
2018-04-26T10:12:58.251Z,93.26
2018-04-26T10:15:24.107Z,92.97
2018-04-26T10:17:49.943Z,92.11
2018-04-26T10:20:15.790Z,91.28
2018-04-26T10:22:41.641Z,90.41
2018-04-26T10:25:07.514Z,90.22
2018-04-26T10:27:33.336Z,89.46
2018-04-26T10:29:59.249Z,89.01
2018-04-26T10:32:25.076Z,88.83
2018-04-26T10:34:50.906Z,88.56
2018-04-26T10:37:16.759Z,89.53
2018-04-26T10:39:42.603Z,87.62
2018-04-26T10:42:08.461Z,85.50
2018-04-26T10:44:34.414Z,83.96
2018-04-26T10:47:00.360Z,84.46
2018-04-26T10:49:26.130Z,87.35
2018-04-26T10:51:52.002Z,88.63
2018-04-26T10:54:17.842Z,90.21
2018-04-26T10:56:43.683Z,90.90
2018-04-26T10:59:09.505Z,91.63
2018-04-26T11:01:35.367Z,91.35
2018-04-26T11:04:01.221Z,91.56
2018-04-26T11:06:27.072Z,91.92
2018-04-26T11:08:52.949Z,90.60
2018-04-26T11:11:18.802Z,90.46
2018-04-26T11:13:44.675Z,90.53
2018-04-26T11:16:10.538Z,89.89
2018-04-26T11:18:36.407Z,88.90
2018-04-26T11:21:02.253Z,87.89
2018-04-26T11:23:28.114Z,85.45
2018-04-26T11:25:53.963Z,85.59
2018-04-26T11:28:19.809Z,84.95
2018-04-26T11:30:45.661Z,82.15
2018-04-26T11:33:11.524Z,81.02
2018-04-26T11:35:37.402Z,79.70
2018-04-26T11:38:03.809Z,77.63
2018-04-26T11:40:29.654Z,77.82
2018-04-26T11:42:55.493Z,73.92
2018-04-26T11:45:21.352Z,72.92
2018-04-26T11:47:47.191Z,72.90
2018-04-26T11:50:13.043Z,70.17
2018-04-26T11:52:38.883Z,69.59
2018-04-26T11:55:04.746Z,67.54
2018-04-26T11:57:30.580Z,67.33
2018-04-26T11:59:56.415Z,68.22
2018-04-26T12:02:22.355Z,70.15
2018-04-26T12:04:48.120Z,68.09
2018-04-26T12:07:13.977Z,67.17
2018-04-26T12:09:39.843Z,67.27
2018-04-26T12:12:05.678Z,69.17
2018-04-26T12:14:31.526Z,69.75
2018-04-26T12:16:57.393Z,67.99
2018-04-26T12:19:23.204Z,66.53
2018-04-26T12:21:49.108Z,67.34
2018-04-26T12:24:14.956Z,67.80
2018-04-26T12:26:40.811Z,67.76
2018-04-26T12:29:06.671Z,65.46
2018-04-26T12:31:32.502Z,65.88
2018-04-26T12:33:58.355Z,69.32
2018-04-26T12:36:24.236Z,66.60
2018-04-26T12:38:50.074Z,68.06
2018-04-26T12:41:15.921Z,70.95
2018-04-26T12:43:41.779Z,71.61
2018-04-26T12:46:07.633Z,73.92
2018-04-26T12:48:33.508Z,73.61
2018-04-26T12:50:59.372Z,70.93
2018-04-26T12:53:25.248Z,75.73
2018-04-26T12:55:51.134Z,81.03
2018-04-26T12:58:17.112Z,82.71
2018-04-26T13:00:42.883Z,84.38
2018-04-26T13:03:08.743Z,85.54
2018-04-26T13:05:34.580Z,84.04
2018-04-26T13:08:00.515Z,82.75
2018-04-26T13:10:26.264Z,79.24
2018-04-26T13:12:52.645Z,76.46
2018-04-26T13:15:18.466Z,78.66
2018-04-26T13:17:44.334Z,76.92
2018-04-26T13:20:10.188Z,77.22
2018-04-26T13:22:36.082Z,78.26
2018-04-26T13:25:01.952Z,78.91
2018-04-26T13:27:27.824Z,79.19
2018-04-26T13:29:53.733Z,79.72
2018-04-26T13:32:19.540Z,79.63
2018-04-26T13:34:45.397Z,79.78
2018-04-26T13:37:11.268Z,78.65
2018-04-26T13:39:37.138Z,78.25
2018-04-26T13:42:02.988Z,80.30
2018-04-26T13:44:28.853Z,75.22
2018-04-26T13:46:54.717Z,75.06
2018-04-26T13:49:20.597Z,72.62
2018-04-26T13:51:46.450Z,71.36
2018-04-26T13:54:12.335Z,71.22
2018-04-26T13:56:38.182Z,73.39
2018-04-26T13:59:04.020Z,71.22
2018-04-26T14:01:29.862Z,73.32
2018-04-26T14:03:55.728Z,68.04
2018-04-26T14:06:21.603Z,65.51
2018-04-26T14:08:47.469Z,67.58
2018-04-26T14:11:13.363Z,68.23
2018-04-26T14:13:39.195Z,68.21
2018-04-26T14:16:05.043Z,64.08
2018-04-26T14:18:30.887Z,68.50
2018-04-26T14:20:56.771Z,71.23
2018-04-26T14:23:22.678Z,69.13
2018-04-26T14:25:48.513Z,69.82
2018-04-26T14:28:14.365Z,71.67
2018-04-26T14:30:40.227Z,68.10
2018-04-26T14:33:06.101Z,67.97
2018-04-26T14:35:32.013Z,74.92
2018-04-26T14:37:57.881Z,82.54
2018-04-26T14:40:23.744Z,86.41
2018-04-26T14:42:49.634Z,89.81
2018-04-26T14:45:15.484Z,90.78
2018-04-26T14:47:41.326Z,92.18
2018-04-26T14:50:07.178Z,93.45
2018-04-26T14:52:33.214Z,94.57
2018-04-26T14:54:59.103Z,95.73
2018-04-26T14:57:24.962Z,96.05
2018-04-26T14:59:51.501Z,95.53
2018-04-26T15:02:17.343Z,95.29
2018-04-26T15:04:43.201Z,93.27
2018-04-26T15:07:09.029Z,93.00
2018-04-26T15:09:34.912Z,90.41
2018-04-26T15:12:00.776Z,89.37
2018-04-26T15:14:26.658Z,88.05
2018-04-26T15:16:52.562Z,86.53
2018-04-26T15:19:18.450Z,85.00
2018-04-26T15:21:44.447Z,84.70
2018-04-26T15:24:10.299Z,82.37
2018-04-26T15:26:36.222Z,82.12
2018-04-26T15:29:02.099Z,80.48
2018-04-26T15:31:27.964Z,80.21
2018-04-26T15:33:53.836Z,79.07
2018-04-26T15:36:19.717Z,77.40
2018-04-26T15:38:45.620Z,77.33
2018-04-26T15:41:11.490Z,74.08
2018-04-26T15:43:37.371Z,74.00
2018-04-26T15:46:03.226Z,74.42
2018-04-26T15:48:29.122Z,77.03
2018-04-26T15:50:54.992Z,75.71
2018-04-26T15:53:33.222Z,75.99
2018-04-26T15:56:12.034Z,78.59
2018-04-26T16:02:11.534Z,87.10
2018-04-26T16:04:49.715Z,89.18
2018-04-26T16:07:48.753Z,88.42
2018-04-26T16:10:27.142Z,88.16
2018-04-26T16:13:11.610Z,87.05
2018-04-26T16:15:56.093Z,81.96
2018-04-26T16:18:40.764Z,78.95
2018-04-26T16:21:25.332Z,74.50
2018-04-26T16:24:03.648Z,71.34
2018-04-26T16:26:48.075Z,71.42
2018-04-26T16:29:32.432Z,67.93
2018-04-26T16:32:17.072Z,64.29
2018-04-26T16:34:55.723Z,64.93
2018-04-26T16:37:40.023Z,62.35
2018-04-26T16:40:06.019Z,65.42
2018-04-26T16:42:31.909Z,63.82
2018-04-26T16:44:57.749Z,64.83
2018-04-26T16:47:23.674Z,64.14
2018-04-26T16:49:49.623Z,63.26
2018-04-26T16:52:16.180Z,70.24
2018-04-26T16:54:42.062Z,72.86
2018-04-26T16:57:07.950Z,74.97
2018-04-26T16:59:34.415Z,75.96
2018-04-26T17:02:00.295Z,76.89
2018-04-26T17:04:26.270Z,77.48
2018-04-26T17:06:52.127Z,77.65
2018-04-26T17:09:18.013Z,78.29
2018-04-26T17:11:44.096Z,79.07
2018-04-26T17:14:10.003Z,78.98
2018-04-26T17:16:35.905Z,79.60
2018-04-26T17:19:01.839Z,80.79
2018-04-26T17:21:27.707Z,80.83
2018-04-26T17:23:53.597Z,82.52
2018-04-26T17:26:19.513Z,80.97
2018-04-26T17:28:45.394Z,79.57
2018-04-26T17:31:11.290Z,78.52
2018-04-26T17:33:37.207Z,81.19
2018-04-26T17:36:03.171Z,79.67
2018-04-26T17:38:29.070Z,79.59
2018-04-26T17:40:54.929Z,80.69
2018-04-26T17:43:20.897Z,78.09
2018-04-26T17:45:46.830Z,80.38
2018-04-26T17:48:12.725Z,78.39
2018-04-26T17:50:38.590Z,79.73
2018-04-26T17:53:04.482Z,79.72
2018-04-26T17:55:30.382Z,77.51
2018-04-26T17:57:56.295Z,76.76
2018-04-26T18:00:22.254Z,76.68
2018-04-26T18:02:48.201Z,76.85
2018-04-26T18:05:14.112Z,76.84
2018-04-26T18:07:54.998Z,76.48
2018-04-26T18:10:21.820Z,77.31
2018-04-26T18:12:47.844Z,77.18
2018-04-26T18:15:13.873Z,77.06
2018-04-26T18:17:39.902Z,77.62
2018-04-26T18:20:08.584Z,77.45
2018-04-26T18:22:31.894Z,77.81
2018-04-26T18:24:58.446Z,76.92
2018-04-26T18:27:24.379Z,76.85
2018-04-26T18:29:50.298Z,76.57
2018-04-26T18:32:17.191Z,76.34
2018-04-26T18:34:43.104Z,76.19
2018-04-26T18:37:09.473Z,77.12
2018-04-26T18:39:35.439Z,77.92
2018-04-26T18:42:02.224Z,78.66
2018-04-26T18:44:28.156Z,78.80
2018-04-26T18:46:54.189Z,78.69
2018-04-26T18:49:20.066Z,78.42
2018-04-26T18:51:46.024Z,79.70
2018-04-26T18:54:11.990Z,78.98
2018-04-26T18:56:37.983Z,79.68
2018-04-26T18:59:03.829Z,80.54
2018-04-26T19:01:30.513Z,80.14
2018-04-26T19:03:56.493Z,79.71
2018-04-26T19:06:23.074Z,79.87
2018-04-26T19:08:48.953Z,80.46
2018-04-26T19:11:14.866Z,80.59
2018-04-26T19:13:40.944Z,81.02
2018-04-26T19:16:06.957Z,81.40
2018-04-26T19:18:32.914Z,82.79
2018-04-26T19:20:58.852Z,81.75
2018-04-26T19:23:24.764Z,81.68
2018-04-26T19:25:50.674Z,83.25
2018-04-26T19:28:17.571Z,83.02
2018-04-26T19:30:43.433Z,83.64
2018-04-26T19:33:10.109Z,83.78
2018-04-26T19:35:36.033Z,83.06
2018-04-26T19:38:02.031Z,84.19
2018-04-26T19:40:27.970Z,85.05
2018-04-26T19:42:53.857Z,84.78
2018-04-26T19:45:20.609Z,84.18
2018-04-26T19:47:46.530Z,83.48
2018-04-26T19:50:14.005Z,83.61
2018-04-26T19:52:39.888Z,83.39
2018-04-26T19:55:05.797Z,83.43
2018-04-26T19:57:31.660Z,84.76
2018-04-26T19:59:57.525Z,85.06
2018-04-26T20:02:23.486Z,84.56
2018-04-26T20:04:49.415Z,84.43
2018-04-26T20:07:15.311Z,83.73
2018-04-26T20:09:41.557Z,83.58
2018-04-26T20:12:07.422Z,83.23
2018-04-26T20:14:33.313Z,82.79
2018-04-26T20:16:59.201Z,83.00
2018-04-26T20:19:25.083Z,82.18
2018-04-26T20:21:51.708Z,82.38
2018-04-26T20:24:18.377Z,83.56
2018-04-26T20:26:44.263Z,82.06
2018-04-26T20:29:10.178Z,81.83
2018-04-26T20:31:36.055Z,81.45
2018-04-26T20:34:01.947Z,81.83
2018-04-26T20:36:28.011Z,81.71
2018-04-26T20:38:54.040Z,81.07
2018-04-26T20:41:19.943Z,81.78
2018-04-26T20:43:45.852Z,82.01
2018-04-26T20:46:11.701Z,82.57
2018-04-26T20:48:40.444Z,82.51
2018-04-26T20:51:06.327Z,82.26
2018-04-26T20:53:32.218Z,81.22
2018-04-26T20:55:58.108Z,81.51
2018-04-26T20:58:23.954Z,82.58
2018-04-26T21:00:49.892Z,83.39
2018-04-26T21:03:15.802Z,83.06
2018-04-26T21:05:41.712Z,85.71
2018-04-26T21:08:07.684Z,85.23
2018-04-26T21:10:33.558Z,86.48
2018-04-26T21:12:59.460Z,87.88
2018-04-26T21:15:25.322Z,87.00
2018-04-26T21:17:51.244Z,86.69
2018-04-26T21:20:17.086Z,87.05
2018-04-26T21:22:42.936Z,87.99
2018-04-26T21:25:08.817Z,88.43
2018-04-26T21:27:34.668Z,88.50
2018-04-26T21:30:00.536Z,89.24
2018-04-26T21:32:26.405Z,89.89
2018-04-26T21:34:52.257Z,89.81
2018-04-26T21:37:18.142Z,90.24
2018-04-26T21:39:44.014Z,90.71
2018-04-26T21:42:09.887Z,90.76
2018-04-26T21:44:35.777Z,91.11
2018-04-26T21:47:01.602Z,91.14
2018-04-26T21:49:27.407Z,91.17
2018-04-26T21:51:59.569Z,91.07
2018-04-26T21:54:31.680Z,90.38
2018-04-26T21:57:03.628Z,90.84
2018-04-26T21:59:35.592Z,91.34
2018-04-26T22:02:07.533Z,91.59
2018-04-26T22:04:39.402Z,91.61
2018-04-26T22:07:05.249Z,91.78
2018-04-26T22:09:31.114Z,91.65
2018-04-26T22:11:56.955Z,92.57
2018-04-26T22:14:22.879Z,92.36
2018-04-26T22:16:48.682Z,92.33
2018-04-26T22:19:14.538Z,93.04
2018-04-26T22:21:40.399Z,92.69
2018-04-26T22:24:06.267Z,92.46
2018-04-26T22:26:32.119Z,92.25
2018-04-26T22:28:57.963Z,91.76
2018-04-26T22:31:23.850Z,90.93
2018-04-26T22:33:49.693Z,90.60
2018-04-26T22:36:15.578Z,90.02
2018-04-26T22:38:41.448Z,90.10
2018-04-26T22:41:07.304Z,90.32
2018-04-26T22:43:33.168Z,90.46
2018-04-26T22:45:59.013Z,90.97
2018-04-26T22:48:24.880Z,91.12
2018-04-26T22:50:50.743Z,90.92
2018-04-26T22:53:16.604Z,90.66
2018-04-26T22:55:42.440Z,91.09
2018-04-26T22:58:08.303Z,91.15
2018-04-26T23:00:34.252Z,90.88
2018-04-26T23:03:00.123Z,90.24
2018-04-26T23:05:25.960Z,90.14
2018-04-26T23:07:51.800Z,89.99
2018-04-26T23:10:17.664Z,89.71
2018-04-26T23:12:43.516Z,89.53
2018-04-26T23:15:09.412Z,89.27
2018-04-26T23:17:35.237Z,89.37
2018-04-26T23:20:01.098Z,89.19
2018-04-26T23:22:26.943Z,88.84
2018-04-26T23:24:52.806Z,89.07
2018-04-26T23:27:18.635Z,88.70
2018-04-26T23:29:44.507Z,88.81
2018-04-26T23:32:10.359Z,88.53
2018-04-26T23:34:36.219Z,88.59
2018-04-26T23:37:02.903Z,88.26
2018-04-26T23:39:28.733Z,87.98
2018-04-26T23:41:54.596Z,87.93
2018-04-26T23:44:20.457Z,87.92
2018-04-26T23:46:46.311Z,87.87
2018-04-26T23:49:12.162Z,88.02
2018-04-26T23:51:37.985Z,88.28
2018-04-26T23:54:03.832Z,87.99
2018-04-26T23:56:29.684Z,88.37
2018-04-26T23:58:55.589Z,88.11
